createdAt,value
2023-09-17T00:00:04.610Z,17.73
2023-09-17T00:00:30.434Z,17.14
2023-09-17T00:00:35.993Z,17.14
2023-09-17T00:01:04.616Z,17.73
2023-09-17T00:01:30.515Z,17.14
2023-09-17T00:01:36.063Z,17.14
2023-09-17T00:02:04.727Z,17.73
2023-09-17T00:02:30.480Z,17.14
2023-09-17T00:02:36.078Z,17.14
2023-09-17T00:03:04.682Z,17.73
2023-09-17T00:03:36.117Z,17.14
2023-09-17T00:04:36.060Z,17.14
2023-09-17T00:05:36.051Z,17.11
2023-09-17T00:06:36.058Z,17.11
2023-09-17T00:07:36.090Z,17.11
2023-09-17T00:08:36.068Z,17.11
2023-09-17T00:09:36.072Z,17.11
2023-09-17T00:10:36.137Z,17.09
2023-09-17T00:11:36.079Z,17.09
2023-09-17T00:12:36.087Z,17.05
2023-09-17T00:13:36.122Z,17.05
2023-09-17T00:14:36.124Z,17.05
2023-09-17T00:15:36.140Z,17.05
2023-09-17T00:16:36.241Z,17.05
2023-09-17T00:17:36.200Z,17.03
2023-09-17T00:18:30.583Z,17.06
2023-09-17T00:18:36.173Z,17.03
2023-09-17T00:19:30.618Z,17.06
2023-09-17T00:19:36.242Z,17.03
2023-09-17T00:20:30.617Z,17.06
2023-09-17T00:20:36.196Z,17.03
2023-09-17T00:21:30.619Z,17.06
2023-09-17T00:21:36.216Z,17.03
2023-09-17T00:22:30.662Z,17.06
2023-09-17T00:23:30.665Z,17.06
2023-09-17T00:24:30.674Z,17.04
2023-09-17T00:25:30.724Z,17.04
2023-09-17T00:26:30.684Z,17.04
2023-09-17T00:26:36.228Z,17.03
2023-09-17T00:27:30.686Z,17.04
2023-09-17T00:27:36.248Z,17.00
2023-09-17T00:28:30.733Z,17.02
2023-09-17T00:28:36.293Z,17.00
2023-09-17T00:29:36.284Z,17.00
2023-09-17T00:30:04.848Z,16.91
2023-09-17T00:30:36.321Z,16.98
2023-09-17T00:31:04.880Z,16.89
2023-09-17T00:31:36.320Z,16.98
2023-09-17T00:32:04.861Z,16.89
2023-09-17T00:32:36.339Z,16.96
2023-09-17T00:33:04.906Z,16.83
2023-09-17T00:33:36.321Z,16.96
2023-09-17T00:34:04.864Z,16.83
2023-09-17T00:34:36.405Z,16.96
2023-09-17T00:35:04.874Z,16.83
2023-09-17T00:35:36.341Z,16.96
2023-09-17T00:36:04.887Z,16.83
2023-09-17T00:36:36.338Z,16.96
2023-09-17T00:37:04.902Z,16.80
2023-09-17T00:38:04.911Z,16.80
2023-09-17T00:39:04.932Z,16.80
2023-09-17T00:40:04.948Z,16.80
2023-09-17T00:41:04.960Z,16.80
2023-09-17T00:42:04.978Z,16.80
2023-09-17T00:43:04.980Z,16.80
2023-09-17T00:44:04.991Z,16.78
2023-09-17T00:45:04.984Z,16.78
2023-09-17T00:45:36.437Z,16.84
2023-09-17T00:46:05.024Z,16.80
2023-09-17T00:46:36.520Z,16.84
2023-09-17T00:47:05.016Z,16.80
2023-09-17T00:47:36.482Z,16.84
2023-09-17T00:48:05.028Z,16.80
2023-09-17T00:49:05.020Z,16.80
2023-09-17T00:50:05.031Z,16.56
2023-09-17T00:51:05.036Z,16.56
2023-09-17T00:52:05.046Z,16.56
2023-09-17T00:53:05.058Z,16.56
2023-09-17T00:54:05.067Z,16.56
2023-09-17T00:55:05.077Z,16.56
2023-09-17T00:56:05.084Z,16.56
2023-09-17T00:57:05.082Z,16.56
2023-09-17T00:58:05.092Z,16.56
2023-09-17T00:59:05.108Z,16.53
2023-09-17T01:00:05.117Z,16.53
2023-09-17T01:01:05.165Z,16.53
2023-09-17T01:02:05.288Z,16.53
2023-09-17T01:03:05.227Z,16.51
2023-09-17T01:04:05.262Z,16.51
2023-09-17T01:05:05.184Z,16.48
2023-09-17T01:06:05.225Z,16.48
2023-09-17T01:07:05.215Z,16.48
2023-09-17T01:08:05.249Z,16.48
2023-09-17T01:22:31.208Z,16.51
2023-09-17T01:23:31.187Z,16.49
2023-09-17T01:24:31.201Z,16.49
2023-09-17T01:25:31.256Z,16.49
2023-09-17T01:26:31.237Z,16.49
2023-09-17T01:27:31.244Z,16.49
2023-09-17T01:28:31.273Z,16.49
2023-09-17T01:29:31.251Z,16.49
2023-09-17T01:30:31.255Z,16.44
2023-09-17T01:31:31.295Z,16.44
2023-09-17T01:32:31.286Z,16.44
2023-09-17T01:33:31.301Z,16.44
2023-09-17T01:38:36.891Z,16.62
2023-09-17T01:39:36.929Z,16.62
2023-09-17T01:40:36.940Z,16.62
2023-09-17T01:41:36.929Z,16.49
2023-09-17T01:42:36.924Z,16.49
2023-09-17T01:43:36.961Z,16.49
2023-09-17T01:44:36.938Z,16.47
2023-09-17T01:45:36.978Z,16.49
2023-09-17T01:46:31.425Z,16.44
2023-09-17T01:46:36.987Z,16.49
2023-09-17T01:47:31.414Z,16.42
2023-09-17T01:47:37.011Z,16.47
2023-09-17T01:48:05.582Z,16.22
2023-09-17T01:48:31.400Z,16.42
2023-09-17T01:48:36.989Z,16.47
2023-09-17T01:49:05.554Z,16.22
2023-09-17T01:49:31.408Z,16.42
2023-09-17T01:49:37.025Z,16.47
2023-09-17T01:50:05.556Z,16.22
2023-09-17T01:50:31.435Z,16.42
2023-09-17T01:50:37.016Z,16.47
2023-09-17T01:51:05.559Z,16.19
2023-09-17T01:51:31.450Z,16.42
2023-09-17T01:51:37.037Z,16.47
2023-09-17T01:52:05.574Z,16.19
2023-09-17T01:52:31.472Z,16.42
2023-09-17T01:52:37.094Z,16.47
2023-09-17T01:53:05.587Z,16.19
2023-09-17T01:53:31.445Z,16.42
2023-09-17T01:53:37.040Z,16.47
2023-09-17T01:54:05.592Z,16.19
2023-09-17T01:54:31.458Z,16.42
2023-09-17T01:54:37.075Z,16.47
2023-09-17T01:55:05.605Z,16.19
2023-09-17T01:55:31.485Z,16.42
2023-09-17T01:55:37.159Z,16.47
2023-09-17T01:56:05.617Z,16.19
2023-09-17T01:56:31.465Z,16.39
2023-09-17T01:56:37.068Z,16.47
2023-09-17T01:57:05.614Z,16.17
2023-09-17T01:57:31.473Z,16.39
2023-09-17T01:58:05.619Z,16.19
2023-09-17T01:58:31.501Z,16.39
2023-09-17T01:59:05.639Z,16.19
2023-09-17T01:59:31.502Z,16.42
2023-09-17T02:00:31.511Z,16.39
2023-09-17T02:01:31.614Z,16.39
2023-09-17T02:02:31.601Z,16.39
2023-09-17T02:03:31.598Z,16.39
2023-09-17T02:04:31.575Z,16.39
2023-09-17T02:05:31.553Z,16.37
2023-09-17T02:06:31.555Z,16.37
2023-09-17T02:06:37.158Z,16.47
2023-09-17T02:07:31.573Z,16.37
2023-09-17T02:07:37.216Z,16.42
2023-09-17T02:08:31.568Z,16.37
2023-09-17T02:08:37.172Z,16.42
2023-09-17T02:09:31.565Z,16.37
2023-09-17T02:09:37.173Z,16.42
2023-09-17T02:10:31.623Z,16.37
2023-09-17T02:10:37.209Z,16.42
2023-09-17T02:11:31.633Z,16.34
2023-09-17T02:21:05.795Z,16.07
2023-09-17T02:22:05.801Z,16.07
2023-09-17T02:23:05.809Z,16.07
2023-09-17T02:24:05.816Z,16.07
2023-09-17T02:25:05.829Z,16.07
2023-09-17T02:26:05.848Z,16.07
2023-09-17T02:27:05.873Z,16.07
2023-09-17T02:28:05.871Z,16.07
2023-09-17T02:29:05.880Z,16.07
2023-09-17T02:30:05.891Z,16.07
2023-09-17T02:31:05.917Z,16.07
2023-09-17T02:32:05.989Z,16.07
2023-09-17T02:33:05.916Z,16.07
2023-09-17T02:33:37.348Z,16.13
2023-09-17T02:34:05.915Z,16.05
2023-09-17T02:34:31.790Z,16.12
2023-09-17T02:34:37.373Z,16.13
2023-09-17T02:35:05.925Z,16.05
2023-09-17T02:35:31.782Z,16.12
2023-09-17T02:35:37.356Z,16.11
2023-09-17T02:36:05.934Z,16.05
2023-09-17T02:36:31.779Z,16.12
2023-09-17T02:36:37.362Z,16.11
2023-09-17T02:37:05.948Z,16.05
2023-09-17T02:37:31.831Z,16.12
2023-09-17T02:37:37.410Z,16.11
2023-09-17T02:38:05.981Z,16.05
2023-09-17T02:38:31.804Z,16.12
2023-09-17T02:38:37.400Z,16.11
2023-09-17T02:39:05.975Z,16.05
2023-09-17T02:39:31.828Z,16.12
2023-09-17T02:39:37.416Z,16.11
2023-09-17T02:40:06.002Z,16.05
2023-09-17T02:40:37.545Z,16.11
2023-09-17T02:41:06.007Z,16.05
2023-09-17T02:41:37.440Z,16.11
2023-09-17T02:42:06.008Z,16.05
2023-09-17T02:42:31.812Z,16.12
2023-09-17T02:42:37.437Z,16.11
2023-09-17T02:43:06.013Z,16.05
2023-09-17T02:43:31.838Z,15.94
2023-09-17T02:44:06.016Z,16.05
2023-09-17T02:44:31.822Z,15.94
2023-09-17T02:45:06.065Z,16.05
2023-09-17T02:45:31.833Z,15.94
2023-09-17T02:46:06.031Z,16.05
2023-09-17T02:46:31.914Z,15.94
2023-09-17T02:47:31.954Z,15.94
2023-09-17T02:48:31.871Z,15.94
2023-09-17T02:49:31.912Z,15.94
2023-09-17T02:50:31.897Z,15.94
2023-09-17T02:51:31.909Z,15.92
2023-09-17T02:52:31.954Z,15.92
2023-09-17T02:53:31.929Z,15.92
2023-09-17T02:54:32.059Z,15.92
2023-09-17T02:55:31.958Z,15.92
2023-09-17T02:56:31.950Z,15.86
2023-09-17T02:57:31.952Z,15.86
2023-09-17T02:58:32.005Z,15.86
2023-09-17T02:59:06.156Z,16.00
2023-09-17T02:59:31.958Z,15.86
2023-09-17T02:59:37.536Z,15.91
2023-09-17T03:00:06.179Z,16.00
2023-09-17T03:00:31.960Z,15.86
2023-09-17T03:00:40.082Z,15.91
2023-09-17T03:01:06.193Z,16.00
2023-09-17T03:01:32.088Z,15.86
2023-09-17T03:01:37.602Z,15.91
2023-09-17T03:02:06.266Z,16.00
2023-09-17T03:02:32.120Z,15.81
2023-09-17T03:03:06.304Z,15.98
2023-09-17T03:03:32.028Z,15.81
2023-09-17T03:04:06.205Z,15.98
2023-09-17T03:04:32.044Z,15.81
2023-09-17T03:05:06.222Z,15.98
2023-09-17T03:05:32.044Z,15.81
2023-09-17T03:06:06.227Z,15.98
2023-09-17T03:06:32.031Z,15.81
2023-09-17T03:07:06.232Z,15.98
2023-09-17T03:07:32.068Z,15.79
2023-09-17T03:08:06.253Z,15.95
2023-09-17T03:08:32.054Z,15.79
2023-09-17T03:09:06.256Z,15.95
2023-09-17T03:09:32.051Z,15.79
2023-09-17T03:10:06.276Z,15.95
2023-09-17T03:10:32.081Z,15.79
2023-09-17T03:11:06.279Z,15.95
2023-09-17T03:11:32.058Z,15.70
2023-09-17T03:12:06.275Z,15.95
2023-09-17T03:12:32.065Z,15.70
2023-09-17T03:13:32.115Z,15.70
2023-09-17T03:14:32.083Z,15.70
2023-09-17T03:15:32.109Z,15.70
2023-09-17T03:16:32.161Z,15.70
2023-09-17T03:17:32.181Z,15.70
2023-09-17T03:18:32.136Z,15.70
2023-09-17T03:19:32.149Z,15.72
2023-09-17T03:20:32.148Z,15.72
2023-09-17T03:21:32.390Z,15.70
2023-09-17T03:27:37.760Z,15.89
2023-09-17T03:28:37.815Z,15.89
2023-09-17T03:29:37.813Z,15.89
2023-09-17T03:30:32.257Z,15.72
2023-09-17T03:30:37.837Z,15.89
2023-09-17T03:31:32.362Z,15.72
2023-09-17T03:31:37.809Z,15.89
2023-09-17T03:32:32.284Z,15.72
2023-09-17T03:33:32.424Z,15.72
2023-09-17T03:34:32.332Z,15.70
2023-09-17T03:35:32.285Z,15.70
2023-09-17T03:36:06.533Z,15.84
2023-09-17T03:37:06.532Z,15.84
2023-09-17T03:38:06.535Z,15.84
2023-09-17T03:39:06.544Z,15.84
2023-09-17T03:40:37.908Z,15.86
2023-09-17T03:41:37.905Z,15.86
2023-09-17T03:42:37.887Z,15.86
2023-09-17T03:43:37.907Z,15.86
2023-09-17T03:49:32.475Z,15.67
2023-09-17T03:50:32.428Z,15.67
2023-09-17T03:51:32.456Z,15.67
2023-09-17T03:52:32.503Z,15.67
2023-09-17T03:53:32.461Z,15.67
2023-09-17T03:54:32.476Z,15.67
2023-09-17T03:55:32.523Z,15.67
2023-09-17T03:56:32.488Z,15.67
2023-09-17T03:57:06.706Z,15.82
2023-09-17T03:57:32.506Z,15.65
2023-09-17T03:58:06.716Z,15.82
2023-09-17T03:58:32.557Z,15.65
2023-09-17T03:59:06.727Z,15.82
2023-09-17T03:59:32.525Z,15.65
2023-09-17T04:00:06.735Z,15.82
2023-09-17T04:00:32.523Z,15.62
2023-09-17T04:01:06.749Z,15.77
2023-09-17T04:01:32.585Z,15.62
2023-09-17T04:02:06.810Z,15.77
2023-09-17T04:02:32.685Z,15.62
2023-09-17T04:03:06.823Z,15.80
2023-09-17T04:03:32.621Z,15.62
2023-09-17T04:04:06.773Z,15.80
2023-09-17T04:04:32.600Z,15.62
2023-09-17T04:05:06.769Z,15.80
2023-09-17T04:05:32.569Z,15.62
2023-09-17T04:06:06.768Z,15.77
2023-09-17T04:06:32.584Z,15.62
2023-09-17T04:07:06.780Z,15.77
2023-09-17T04:07:32.606Z,15.62
2023-09-17T04:08:06.795Z,15.77
2023-09-17T04:08:32.588Z,15.62
2023-09-17T04:09:06.812Z,15.77
2023-09-17T04:09:32.597Z,15.62
2023-09-17T04:10:06.838Z,15.77
2023-09-17T04:10:32.668Z,15.62
2023-09-17T04:11:06.834Z,15.77
2023-09-17T04:11:32.614Z,15.62
2023-09-17T04:12:06.836Z,15.77
2023-09-17T04:12:32.620Z,15.62
2023-09-17T04:13:06.847Z,15.77
2023-09-17T04:13:32.630Z,15.62
2023-09-17T04:14:06.870Z,15.77
2023-09-17T04:14:32.639Z,15.62
2023-09-17T04:15:06.856Z,15.77
2023-09-17T04:15:32.625Z,15.61
2023-09-17T04:16:06.902Z,15.77
2023-09-17T04:16:32.768Z,15.61
2023-09-17T04:16:38.272Z,15.49
2023-09-17T04:17:06.960Z,15.77
2023-09-17T04:17:32.724Z,15.61
2023-09-17T04:17:38.209Z,15.49
2023-09-17T04:18:06.951Z,15.77
2023-09-17T04:18:32.688Z,15.61
2023-09-17T04:18:38.219Z,15.49
2023-09-17T04:19:07.079Z,15.77
2023-09-17T04:19:32.705Z,15.61
2023-09-17T04:19:38.236Z,15.49
2023-09-17T04:20:32.688Z,15.61
2023-09-17T04:20:38.246Z,15.49
2023-09-17T04:21:32.713Z,15.61
2023-09-17T04:21:38.255Z,15.47
2023-09-17T04:22:32.730Z,15.61
2023-09-17T04:22:38.285Z,15.49
2023-09-17T04:23:32.715Z,15.61
2023-09-17T04:24:32.720Z,15.61
2023-09-17T04:25:32.748Z,15.61
2023-09-17T04:26:32.767Z,15.61
2023-09-17T04:27:38.272Z,15.49
2023-09-17T04:28:38.306Z,15.49
2023-09-17T04:29:38.303Z,15.52
2023-09-17T04:30:38.312Z,15.54
2023-09-17T04:31:38.382Z,15.54
2023-09-17T04:32:38.519Z,15.56
2023-09-17T04:33:38.357Z,15.56
2023-09-17T04:34:38.437Z,15.56
2023-09-17T04:35:38.380Z,15.56
2023-09-17T04:36:38.397Z,15.56
2023-09-17T04:37:38.452Z,15.54
2023-09-17T04:38:38.395Z,15.54
2023-09-17T04:39:38.390Z,15.54
2023-09-17T04:40:38.436Z,15.54
2023-09-17T04:41:38.428Z,15.54
2023-09-17T04:42:38.427Z,15.54
2023-09-17T04:43:38.472Z,15.51
2023-09-17T04:44:38.464Z,15.51
2023-09-17T04:45:38.634Z,15.51
2023-09-17T04:46:38.486Z,15.51
2023-09-17T04:47:38.511Z,15.51
2023-09-17T04:48:38.493Z,15.51
2023-09-17T04:49:38.529Z,15.51
2023-09-17T04:50:38.513Z,15.51
2023-09-17T04:51:38.516Z,15.53
2023-09-17T04:56:07.203Z,15.42
2023-09-17T04:57:07.208Z,15.44
2023-09-17T04:58:07.227Z,15.44
2023-09-17T04:59:07.226Z,15.44
2023-09-17T05:00:07.230Z,15.44
2023-09-17T05:01:07.289Z,15.44
2023-09-17T05:02:07.324Z,15.44
2023-09-17T05:03:07.321Z,15.47
2023-09-17T05:04:07.276Z,15.47
2023-09-17T05:04:33.076Z,15.69
2023-09-17T05:05:07.272Z,15.47
2023-09-17T05:05:33.062Z,15.69
2023-09-17T05:06:07.284Z,15.47
2023-09-17T05:06:33.077Z,15.69
2023-09-17T05:07:07.301Z,15.47
2023-09-17T05:07:33.125Z,15.73
2023-09-17T05:08:07.314Z,15.47
2023-09-17T05:08:33.099Z,15.76
2023-09-17T05:09:07.324Z,15.52
2023-09-17T05:09:33.117Z,15.76
2023-09-17T05:10:07.343Z,15.52
2023-09-17T05:10:33.166Z,15.76
2023-09-17T05:11:07.357Z,15.52
2023-09-17T05:11:33.112Z,15.76
2023-09-17T05:12:07.353Z,15.52
2023-09-17T05:12:33.121Z,15.78
2023-09-17T05:13:07.358Z,15.54
2023-09-17T05:13:33.153Z,15.78
2023-09-17T05:14:07.356Z,15.54
2023-09-17T05:14:33.123Z,15.78
2023-09-17T05:15:07.363Z,15.54
2023-09-17T05:15:33.147Z,15.78
2023-09-17T05:16:07.405Z,15.56
2023-09-17T05:16:33.262Z,15.80
2023-09-17T05:17:07.425Z,15.56
2023-09-17T05:17:33.171Z,15.80
2023-09-17T05:18:07.502Z,15.59
2023-09-17T05:18:33.180Z,15.83
2023-09-17T05:19:07.424Z,15.59
2023-09-17T05:19:33.217Z,15.83
2023-09-17T05:20:07.446Z,15.59
2023-09-17T05:20:33.194Z,15.83
2023-09-17T05:21:07.459Z,15.59
2023-09-17T05:21:33.199Z,15.83
2023-09-17T05:22:07.463Z,15.61
2023-09-17T05:22:33.232Z,15.85
2023-09-17T05:23:07.490Z,15.61
2023-09-17T05:23:33.208Z,15.85
2023-09-17T05:24:07.476Z,15.61
2023-09-17T05:24:33.224Z,15.85
2023-09-17T05:25:07.489Z,15.61
2023-09-17T05:25:33.258Z,15.85
2023-09-17T05:26:07.495Z,15.61
2023-09-17T05:26:33.236Z,15.85
2023-09-17T05:27:07.497Z,15.61
2023-09-17T05:27:33.246Z,15.85
2023-09-17T05:28:33.340Z,15.85
2023-09-17T05:29:33.341Z,15.88
2023-09-17T05:30:33.285Z,15.90
2023-09-17T05:31:33.364Z,15.92
2023-09-17T05:32:33.482Z,15.92
2023-09-17T05:33:33.318Z,15.92
2023-09-17T05:34:33.344Z,15.92
2023-09-17T05:35:33.382Z,15.92
2023-09-17T05:36:38.925Z,15.82
2023-09-17T05:37:38.956Z,15.82
2023-09-17T05:38:33.356Z,15.97
2023-09-17T05:38:38.952Z,15.82
2023-09-17T05:39:07.618Z,15.73
2023-09-17T05:39:33.357Z,15.97
2023-09-17T05:39:38.965Z,15.79
2023-09-17T05:40:07.629Z,15.73
2023-09-17T05:40:33.406Z,15.97
2023-09-17T05:40:39.015Z,15.75
2023-09-17T05:41:33.386Z,15.99
2023-09-17T05:41:38.987Z,15.75
2023-09-17T05:42:33.405Z,15.99
2023-09-17T05:42:39.012Z,15.75
2023-09-17T05:43:33.499Z,15.99
2023-09-17T05:43:39.033Z,15.77
2023-09-17T05:44:33.433Z,16.02
2023-09-17T05:44:39.010Z,15.77
2023-09-17T05:45:33.455Z,16.02
2023-09-17T05:45:39.039Z,15.77
2023-09-17T05:46:33.481Z,16.02
2023-09-17T05:46:39.030Z,15.82
2023-09-17T05:47:33.471Z,16.02
2023-09-17T05:47:39.059Z,15.82
2023-09-17T05:48:33.454Z,16.02
2023-09-17T05:48:39.032Z,15.82
2023-09-17T05:49:33.498Z,16.02
2023-09-17T05:49:39.072Z,15.84
2023-09-17T05:50:39.138Z,15.90
2023-09-17T05:51:39.071Z,15.90
2023-09-17T05:52:39.098Z,15.90
2023-09-17T05:53:39.082Z,15.92
2023-09-17T05:54:39.090Z,15.92
2023-09-17T05:55:39.132Z,15.95
2023-09-17T05:56:39.113Z,15.97
2023-09-17T05:57:39.120Z,15.97
2023-09-17T05:58:39.174Z,16.01
2023-09-17T06:04:39.191Z,16.08
2023-09-17T06:05:39.183Z,16.06
2023-09-17T06:06:39.206Z,16.06
2023-09-17T06:07:39.289Z,16.11
2023-09-17T06:08:39.207Z,16.11
2023-09-17T06:09:39.218Z,16.20
2023-09-17T06:10:39.255Z,16.25
2023-09-17T06:11:39.228Z,16.25
2023-09-17T06:12:39.231Z,16.27
2023-09-17T06:13:39.261Z,16.30
2023-09-17T06:14:33.699Z,16.22
2023-09-17T06:14:39.244Z,16.30
2023-09-17T06:15:33.750Z,16.22
2023-09-17T06:15:39.286Z,16.30
2023-09-17T06:16:46.221Z,16.26
2023-09-17T06:16:50.439Z,16.30
2023-09-17T06:17:39.383Z,16.32
2023-09-17T06:18:39.306Z,16.34
2023-09-17T06:19:33.732Z,16.29
2023-09-17T06:19:39.338Z,16.34
2023-09-17T06:20:33.750Z,16.29
2023-09-17T06:20:39.335Z,16.37
2023-09-17T06:21:33.772Z,16.31
2023-09-17T06:21:39.338Z,16.37
2023-09-17T06:22:33.781Z,16.31
2023-09-17T06:22:39.355Z,16.37
2023-09-17T06:23:33.810Z,16.31
2023-09-17T06:23:39.353Z,16.37
2023-09-17T06:24:33.802Z,16.31
2023-09-17T06:25:33.848Z,16.36
2023-09-17T06:30:08.042Z,16.70
2023-09-17T06:31:08.057Z,16.72
2023-09-17T06:32:08.081Z,16.72
2023-09-17T06:33:08.123Z,16.75
2023-09-17T06:34:08.074Z,16.75
2023-09-17T06:35:08.082Z,16.82
2023-09-17T06:36:08.091Z,16.82
2023-09-17T06:37:08.104Z,16.84
2023-09-17T06:38:08.105Z,16.84
2023-09-17T06:39:08.149Z,16.87
2023-09-17T06:40:08.124Z,16.87
2023-09-17T06:41:08.124Z,16.91
2023-09-17T06:42:08.140Z,17.12
2023-09-17T06:43:08.148Z,17.12
2023-09-17T06:44:08.237Z,17.21
2023-09-17T06:45:08.174Z,17.24
2023-09-17T06:50:39.634Z,17.55
2023-09-17T06:51:39.622Z,17.55
2023-09-17T06:52:39.670Z,17.62
2023-09-17T06:53:39.638Z,17.66
2023-09-17T06:54:39.644Z,17.66
2023-09-17T06:55:39.665Z,17.66
2023-09-17T06:56:39.666Z,17.71
2023-09-17T06:57:40.457Z,17.71
2023-09-17T06:58:39.705Z,17.71
2023-09-17T06:59:39.698Z,17.71
2023-09-17T07:00:39.708Z,17.71
2023-09-17T07:01:39.842Z,17.74
2023-09-17T07:02:39.782Z,17.74
2023-09-17T07:03:39.736Z,17.74
2023-09-17T07:04:39.850Z,17.74
2023-09-17T07:05:08.343Z,17.74
2023-09-17T07:05:39.743Z,17.74
2023-09-17T07:06:08.298Z,17.76
2023-09-17T07:06:39.740Z,17.74
2023-09-17T07:07:08.319Z,17.76
2023-09-17T07:07:39.813Z,17.74
2023-09-17T07:08:08.345Z,17.76
2023-09-17T07:08:39.775Z,17.74
2023-09-17T07:09:08.329Z,17.76
2023-09-17T07:09:39.788Z,17.74
2023-09-17T07:10:08.344Z,17.76
2023-09-17T07:10:39.831Z,17.76
2023-09-17T07:11:08.356Z,17.76
2023-09-17T07:11:34.227Z,18.07
2023-09-17T07:11:39.807Z,17.76
2023-09-17T07:12:08.356Z,17.76
2023-09-17T07:12:34.246Z,18.10
2023-09-17T07:12:39.835Z,17.78
2023-09-17T07:13:08.368Z,17.76
2023-09-17T07:13:34.280Z,18.10
2023-09-17T07:13:40.008Z,17.78
2023-09-17T07:14:34.280Z,18.10
2023-09-17T07:14:39.850Z,17.78
2023-09-17T07:15:34.281Z,18.10
2023-09-17T07:15:39.849Z,17.78
2023-09-17T07:16:34.359Z,18.23
2023-09-17T07:16:39.937Z,17.81
2023-09-17T07:17:34.513Z,18.23
2023-09-17T07:17:40.045Z,17.81
2023-09-17T07:18:34.316Z,18.25
2023-09-17T07:19:34.361Z,18.25
2023-09-17T07:20:34.331Z,18.25
2023-09-17T07:21:34.345Z,18.25
2023-09-17T07:22:34.379Z,18.25
2023-09-17T07:22:39.956Z,17.85
2023-09-17T07:23:34.351Z,18.25
2023-09-17T07:24:34.357Z,18.32
2023-09-17T07:25:34.384Z,18.32
2023-09-17T07:26:34.389Z,18.32
2023-09-17T07:27:34.415Z,18.32
2023-09-17T07:28:34.442Z,18.39
2023-09-17T07:29:34.428Z,18.42
2023-09-17T07:30:34.439Z,18.55
2023-09-17T07:31:34.531Z,18.55
2023-09-17T07:32:34.524Z,18.62
2023-09-17T07:33:34.463Z,18.62
2023-09-17T07:34:34.503Z,18.62
2023-09-17T07:35:34.483Z,18.62
2023-09-17T07:36:34.492Z,18.65
2023-09-17T07:37:50.075Z,18.65
2023-09-17T07:38:34.540Z,18.65
2023-09-17T07:38:40.085Z,18.39
2023-09-17T07:39:34.504Z,18.75
2023-09-17T07:39:40.081Z,18.39
2023-09-17T07:40:34.765Z,18.75
2023-09-17T07:40:40.117Z,18.39
2023-09-17T07:41:34.529Z,18.75
2023-09-17T07:41:40.110Z,18.39
2023-09-17T07:42:34.581Z,18.75
2023-09-17T07:42:40.123Z,18.39
2023-09-17T07:43:40.251Z,18.42
2023-09-17T07:50:08.702Z,19.16
2023-09-17T07:51:08.701Z,19.16
2023-09-17T07:51:34.607Z,18.79
2023-09-17T07:52:34.674Z,18.82
2023-09-17T07:53:34.632Z,18.82
2023-09-17T07:53:40.221Z,18.60
2023-09-17T07:54:34.652Z,18.82
2023-09-17T07:54:40.234Z,18.60
2023-09-17T07:55:34.681Z,18.82
2023-09-17T07:55:40.254Z,18.62
2023-09-17T07:56:34.673Z,18.82
2023-09-17T07:56:40.266Z,18.62
2023-09-17T07:57:34.683Z,18.86
2023-09-17T07:57:40.258Z,18.64
2023-09-17T07:58:34.725Z,18.86
2023-09-17T07:59:34.696Z,18.86
2023-09-17T08:00:34.719Z,18.86
2023-09-17T08:01:34.814Z,18.86
2023-09-17T08:01:40.335Z,18.67
2023-09-17T08:02:35.053Z,18.86
2023-09-17T08:02:40.459Z,18.78
2023-09-17T08:03:40.344Z,18.78
2023-09-17T08:04:40.354Z,18.78
2023-09-17T08:05:40.320Z,19.67
2023-09-17T08:06:40.328Z,19.70
2023-09-17T08:07:40.370Z,19.70
2023-09-17T08:08:40.346Z,19.70
2023-09-17T08:09:40.374Z,19.70
2023-09-17T08:10:40.408Z,19.70
2023-09-17T08:11:40.371Z,19.72
2023-09-17T08:13:08.907Z,19.78
2023-09-17T08:14:08.928Z,19.80
2023-09-17T08:15:08.911Z,19.80
2023-09-17T08:16:08.910Z,19.80
2023-09-17T08:17:09.002Z,19.80
2023-09-17T08:18:08.951Z,19.80
2023-09-17T08:19:08.945Z,19.85
2023-09-17T08:20:08.999Z,19.85
2023-09-17T08:21:08.947Z,19.85
2023-09-17T08:22:08.954Z,19.85
2023-09-17T08:23:08.961Z,19.85
2023-09-17T08:24:08.966Z,19.85
2023-09-17T08:25:08.969Z,19.87
2023-09-17T08:26:09.020Z,19.87
2023-09-17T08:27:08.996Z,19.89
2023-09-17T08:28:11.636Z,19.89
2023-09-17T08:29:09.005Z,19.89
2023-09-17T08:30:09.006Z,19.89
2023-09-17T08:31:09.082Z,19.89
2023-09-17T08:32:09.015Z,19.89
2023-09-17T08:33:09.064Z,20.29
2023-09-17T08:34:09.052Z,20.29
2023-09-17T08:35:09.061Z,20.29
2023-09-17T08:36:09.066Z,20.34
2023-09-17T08:37:09.082Z,20.41
2023-09-17T08:38:09.087Z,20.41
2023-09-17T08:39:09.092Z,20.41
2023-09-17T08:40:09.109Z,20.41
2023-09-17T08:41:09.160Z,20.41
2023-09-17T08:42:09.131Z,20.41
2023-09-17T08:43:09.128Z,20.46
2023-09-17T08:44:09.174Z,20.57
2023-09-17T08:45:09.129Z,20.59
2023-09-17T08:46:09.165Z,20.59
2023-09-17T08:47:09.187Z,20.59
2023-09-17T08:48:09.233Z,20.62
2023-09-17T08:49:09.193Z,20.62
2023-09-17T08:49:35.181Z,20.33
2023-09-17T08:50:09.219Z,20.62
2023-09-17T08:50:35.159Z,20.33
2023-09-17T08:51:35.177Z,20.33
2023-09-17T08:52:35.241Z,20.33
2023-09-17T08:53:35.206Z,20.37
2023-09-17T08:54:35.213Z,20.37
2023-09-17T08:54:40.719Z,20.40
2023-09-17T08:55:35.299Z,20.40
2023-09-17T08:55:40.782Z,20.40
2023-09-17T08:56:35.228Z,20.40
2023-09-17T08:56:40.744Z,20.45
2023-09-17T08:57:35.233Z,20.40
2023-09-17T08:57:40.755Z,20.45
2023-09-17T08:58:40.817Z,20.45
2023-09-17T08:59:40.771Z,20.45
2023-09-17T09:00:40.793Z,20.52
2023-09-17T09:01:40.854Z,20.52
2023-09-17T09:02:40.898Z,20.52
2023-09-17T09:03:40.928Z,20.52
2023-09-17T09:04:40.838Z,20.52
2023-09-17T09:05:09.307Z,20.81
2023-09-17T09:05:40.814Z,20.52
2023-09-17T09:06:40.828Z,20.52
2023-09-17T09:07:40.889Z,20.55
2023-09-17T09:08:09.352Z,20.81
2023-09-17T09:08:40.872Z,20.57
2023-09-17T09:09:40.880Z,20.57
2023-09-17T09:10:35.353Z,20.67
2023-09-17T09:10:40.939Z,20.57
2023-09-17T09:11:09.366Z,20.85
2023-09-17T09:11:35.346Z,20.67
2023-09-17T09:11:40.914Z,20.60
2023-09-17T09:12:35.358Z,20.67
2023-09-17T09:12:40.921Z,20.60
2023-09-17T09:13:09.366Z,21.21
2023-09-17T09:13:35.408Z,20.67
2023-09-17T09:13:40.962Z,20.60
2023-09-17T09:14:35.376Z,20.67
2023-09-17T09:14:40.948Z,20.60
2023-09-17T09:15:35.432Z,20.69
2023-09-17T09:17:35.492Z,20.69
2023-09-17T09:18:09.420Z,21.25
2023-09-17T09:18:35.416Z,20.69
2023-09-17T09:18:40.960Z,20.64
2023-09-17T09:19:09.428Z,21.25
2023-09-17T09:19:35.436Z,20.72
2023-09-17T09:19:41.000Z,20.64
2023-09-17T09:20:35.424Z,20.72
2023-09-17T09:20:40.976Z,20.64
2023-09-17T09:21:35.425Z,20.74
2023-09-17T09:21:40.991Z,20.83
2023-09-17T09:22:35.457Z,20.74
2023-09-17T09:22:41.016Z,20.85
2023-09-17T09:23:35.441Z,20.74
2023-09-17T09:23:41.011Z,20.88
2023-09-17T09:24:35.445Z,20.76
2023-09-17T09:24:41.013Z,20.88
2023-09-17T09:25:35.475Z,21.63
2023-09-17T09:25:41.085Z,20.88
2023-09-17T09:26:35.467Z,21.66
2023-09-17T09:26:41.034Z,20.90
2023-09-17T09:27:35.474Z,21.66
2023-09-17T09:27:41.035Z,20.90
2023-09-17T09:28:35.524Z,21.66
2023-09-17T09:28:41.064Z,20.92
2023-09-17T09:29:35.518Z,21.66
2023-09-17T09:29:41.051Z,20.92
2023-09-17T09:30:09.520Z,21.37
2023-09-17T09:30:35.526Z,21.66
2023-09-17T09:30:41.055Z,20.95
2023-09-17T09:31:09.508Z,21.37
2023-09-17T09:31:35.626Z,21.71
2023-09-17T09:31:41.179Z,20.95
2023-09-17T09:32:09.640Z,21.37
2023-09-17T09:32:35.636Z,21.71
2023-09-17T09:33:09.579Z,21.37
2023-09-17T09:33:35.564Z,21.73
2023-09-17T09:34:09.561Z,21.40
2023-09-17T09:34:35.582Z,21.75
2023-09-17T09:35:09.621Z,21.40
2023-09-17T09:35:35.556Z,21.75
2023-09-17T09:36:09.568Z,21.42
2023-09-17T09:36:35.604Z,21.75
2023-09-17T09:37:35.630Z,21.78
2023-09-17T09:38:09.638Z,21.44
2023-09-17T09:38:35.578Z,21.78
2023-09-17T09:39:09.594Z,21.44
2023-09-17T09:39:35.581Z,21.80
2023-09-17T09:40:09.604Z,21.44
2023-09-17T09:40:35.677Z,21.80
2023-09-17T09:41:11.099Z,21.44
2023-09-17T09:41:35.620Z,21.80
2023-09-17T09:42:35.704Z,21.80
2023-09-17T09:43:35.671Z,21.83
2023-09-17T09:44:35.660Z,21.83
2023-09-17T09:45:35.712Z,21.83
2023-09-17T09:46:35.695Z,21.85
2023-09-17T09:47:09.749Z,21.52
2023-09-17T09:47:35.709Z,21.85
2023-09-17T09:48:09.690Z,21.54
2023-09-17T09:49:09.702Z,21.54
2023-09-17T09:50:09.788Z,21.54
2023-09-17T09:51:09.715Z,21.56
2023-09-17T10:02:35.795Z,22.17